Аэропорт: Емельяново. Красноярск

ICAO: UNKL

METAR:
2019/03/26 13:00
UNKL 261300Z 00000MPS CAVOK M03/M07 Q1031 R11/CLRD65 NOSIG RMK QFE747
METAR:
2019/03/26 12:21
TAF UNKL 261100Z 2612/2712 17003G08MPS 9999 SCT040 
     FM261700 VRB01MPS 3100 BR FEW003 
     FM270300 11003G10MPS CAVOK